sensor_id;sensor_type;location;lat;lon;timestamp;pressure;altitude;pressure_sealevel;temperature;humidity
49178;BME280;35016;55.674;37.468;2023-05-29T00:01:55;99331.59;;;10.12;57.61
49178;BME280;35016;55.674;37.468;2023-05-29T00:04:23;99339.16;;;10.10;57.56
49178;BME280;35016;55.674;37.468;2023-05-29T00:06:50;99337.53;;;10.09;57.34
49178;BME280;35016;55.674;37.468;2023-05-29T00:09:17;99338.34;;;10.09;57.27
49178;BME280;35016;55.674;37.468;2023-05-29T00:11:45;99333.72;;;10.10;57.03
49178;BME280;35016;55.674;37.468;2023-05-29T00:14:21;99338.91;;;10.11;57.24
49178;BME280;35016;55.674;37.468;2023-05-29T00:16:50;99335.38;;;10.11;56.83
49178;BME280;35016;55.674;37.468;2023-05-29T00:19:19;99343.25;;;10.12;57.34
49178;BME280;35016;55.674;37.468;2023-05-29T00:21:46;99344.91;;;10.13;57.05
49178;BME280;35016;55.674;37.468;2023-05-29T00:24:15;99343.50;;;10.11;57.32
49178;BME280;35016;55.674;37.468;2023-05-29T00:26:43;99343.75;;;10.09;57.34
49178;BME280;35016;55.674;37.468;2023-05-29T00:29:10;99346.72;;;10.08;57.60
49178;BME280;35016;55.674;37.468;2023-05-29T00:31:38;99355.66;;;10.08;56.99
49178;BME280;35016;55.674;37.468;2023-05-29T00:34:05;99347.53;;;10.08;57.16
49178;BME280;35016;55.674;37.468;2023-05-29T00:36:33;99344.03;;;10.08;57.30
49178;BME280;35016;55.674;37.468;2023-05-29T00:39:01;99345.91;;;10.07;57.66
49178;BME280;35016;55.674;37.468;2023-05-29T00:41:28;99343.19;;;10.07;57.47
49178;BME280;35016;55.674;37.468;2023-05-29T00:43:56;99346.72;;;10.08;57.55
49178;BME280;35016;55.674;37.468;2023-05-29T00:46:23;99342.38;;;10.07;57.65
49178;BME280;35016;55.674;37.468;2023-05-29T00:48:50;99342.38;;;10.07;57.16
49178;BME280;35016;55.674;37.468;2023-05-29T00:51:19;99345.34;;;10.05;57.62
49178;BME280;35016;55.674;37.468;2023-05-29T00:53:48;99352.66;;;10.05;57.73
49178;BME280;35016;55.674;37.468;2023-05-29T00:56:18;99346.44;;;10.04;57.39
49178;BME280;35016;55.674;37.468;2023-05-29T00:58:51;99349.41;;;10.03;58.03
49178;BME280;35016;55.674;37.468;2023-05-29T01:01:19;99354.28;;;10.01;57.17
49178;BME280;35016;55.674;37.468;2023-05-29T01:03:47;99356.72;;;10.02;57.79
49178;BME280;35016;55.674;37.468;2023-05-29T01:06:15;99360.50;;;10.01;57.74
49178;BME280;35016;55.674;37.468;2023-05-29T01:08:44;99356.16;;;10.00;57.63
49178;BME280;35016;55.674;37.468;2023-05-29T01:13:45;99357.78;;;10.01;57.82
49178;BME280;35016;55.674;37.468;2023-05-29T01:16:31;99362.41;;;10.01;58.19
49178;BME280;35016;55.674;37.468;2023-05-29T01:25:11;99363.75;;;10.03;57.88
49178;BME280;35016;55.674;37.468;2023-05-29T01:27:41;99363.75;;;10.03;57.51
49178;BME280;35016;55.674;37.468;2023-05-29T01:30:11;99359.44;;;10.02;57.75
49178;BME280;35016;55.674;37.468;2023-05-29T01:32:38;99364.84;;;10.02;57.34
49178;BME280;35016;55.674;37.468;2023-05-29T01:35:07;99368.09;;;10.04;57.52
49178;BME280;35016;55.674;37.468;2023-05-29T01:37:35;99364.06;;;10.07;57.13
49178;BME280;35016;55.674;37.468;2023-05-29T01:40:02;99375.97;;;10.06;57.33
49178;BME280;35016;55.674;37.468;2023-05-29T01:42:31;99370.03;;;10.09;57.87
49178;BME280;35016;55.674;37.468;2023-05-29T01:44:59;99361.66;;;10.10;57.49
49178;BME280;35016;55.674;37.468;2023-05-29T01:47:28;99368.41;;;10.08;57.37
49178;BME280;35016;55.674;37.468;2023-05-29T01:49:55;99363.59;;;10.15;57.00
49178;BME280;35016;55.674;37.468;2023-05-29T01:52:24;99375.56;;;10.19;57.42
49178;BME280;35016;55.674;37.468;2023-05-29T01:54:52;99368.25;;;10.19;57.33
49178;BME280;35016;55.674;37.468;2023-05-29T01:57:20;99371.28;;;10.23;57.06
49178;BME280;35016;55.674;37.468;2023-05-29T01:59:47;99366.41;;;10.25;57.35
49178;BME280;35016;55.674;37.468;2023-05-29T02:02:16;99374.28;;;10.27;57.40
49178;BME280;35016;55.674;37.468;2023-05-29T02:04:43;99372.38;;;10.27;57.74
49178;BME280;35016;55.674;37.468;2023-05-29T02:07:10;99369.97;;;10.31;57.56
49178;BME280;35016;55.674;37.468;2023-05-29T02:09:39;99374.59;;;10.35;56.98
49178;BME280;35016;55.674;37.468;2023-05-29T02:12:06;99377.34;;;10.40;57.13
49178;BME280;35016;55.674;37.468;2023-05-29T02:14:34;99374.13;;;10.43;57.05
49178;BME280;35016;55.674;37.468;2023-05-29T02:17:02;99366.56;;;10.45;57.10
49178;BME280;35016;55.674;37.468;2023-05-29T02:19:31;99373.38;;;10.53;57.08
49178;BME280;35016;55.674;37.468;2023-05-29T02:21:59;99382.59;;;10.57;57.17
49178;BME280;35016;55.674;37.468;2023-05-29T02:24:28;99378.03;;;10.63;57.12
49178;BME280;35016;55.674;37.468;2023-05-29T02:26:55;99385.09;;;10.69;56.96
49178;BME280;35016;55.674;37.468;2023-05-29T02:29:22;99385.16;;;10.74;56.95
49178;BME280;35016;55.674;37.468;2023-05-29T02:31:52;99383.53;;;10.78;56.82
49178;BME280;35016;55.674;37.468;2023-05-29T02:34:19;99383.84;;;10.86;57.03
49178;BME280;35016;55.674;37.468;2023-05-29T02:36:50;99393.63;;;10.93;56.67
49178;BME280;35016;55.674;37.468;2023-05-29T02:39:19;99381.75;;;10.99;56.38
49178;BME280;35016;55.674;37.468;2023-05-29T02:41:46;99382.59;;;11.04;56.07
49178;BME280;35016;55.674;37.468;2023-05-29T02:44:13;99376.09;;;11.10;56.20
49178;BME280;35016;55.674;37.468;2023-05-29T02:46:40;99379.63;;;11.16;55.64
49178;BME280;35016;55.674;37.468;2023-05-29T02:49:08;99384.25;;;11.21;56.16
49178;BME280;35016;55.674;37.468;2023-05-29T02:51:35;99384.84;;;11.28;55.51
49178;BME280;35016;55.674;37.468;2023-05-29T02:54:02;99385.13;;;11.31;56.03
49178;BME280;35016;55.674;37.468;2023-05-29T02:56:30;99391.13;;;11.38;55.53
49178;BME280;35016;55.674;37.468;2023-05-29T02:58:57;99392.22;;;11.42;55.58
49178;BME280;35016;55.674;37.468;2023-05-29T03:01:24;99393.31;;;11.46;55.32
49178;BME280;35016;55.674;37.468;2023-05-29T03:03:51;99400.38;;;11.53;55.25
49178;BME280;35016;55.674;37.468;2023-05-29T03:06:19;99406.66;;;11.58;55.13
49178;BME280;35016;55.674;37.468;2023-05-29T03:08:47;99410.19;;;11.64;55.32
49178;BME280;35016;55.674;37.468;2023-05-29T03:11:15;99409.38;;;11.68;55.06
49178;BME280;35016;55.674;37.468;2023-05-29T03:13:42;99408.31;;;11.74;54.85
49178;BME280;35016;55.674;37.468;2023-05-29T03:16:10;99402.63;;;11.81;55.02
49178;BME280;35016;55.674;37.468;2023-05-29T03:18:38;99408.91;;;11.87;54.59
49178;BME280;35016;55.674;37.468;2023-05-29T03:21:07;99417.06;;;11.92;54.23
49178;BME280;35016;55.674;37.468;2023-05-29T03:23:34;99417.06;;;11.97;54.63
49178;BME280;35016;55.674;37.468;2023-05-29T03:26:02;99419.78;;;12.02;54.55
49178;BME280;35016;55.674;37.468;2023-05-29T03:28:32;99418.69;;;12.08;54.08
49178;BME280;35016;55.674;37.468;2023-05-29T03:31:02;99416.53;;;12.15;54.27
49178;BME280;35016;55.674;37.468;2023-05-29T03:33:29;99420.34;;;12.19;54.37
49178;BME280;35016;55.674;37.468;2023-05-29T03:36:04;99422.53;;;12.27;53.94
49178;BME280;35016;55.674;37.468;2023-05-29T03:38:32;99426.03;;;12.33;54.20
49178;BME280;35016;55.674;37.468;2023-05-29T03:40:59;99420.03;;;12.41;53.67
49178;BME280;35016;55.674;37.468;2023-05-29T03:43:27;99421.69;;;12.47;53.70
49178;BME280;35016;55.674;37.468;2023-05-29T03:45:54;99423.31;;;12.53;53.27
49178;BME280;35016;55.674;37.468;2023-05-29T03:48:21;99426.56;;;12.60;53.01
49178;BME280;35016;55.674;37.468;2023-05-29T03:50:49;99420.84;;;12.67;52.59
49178;BME280;35016;55.674;37.468;2023-05-29T03:53:23;99427.09;;;12.73;52.55
49178;BME280;35016;55.674;37.468;2023-05-29T03:55:50;99435.25;;;12.83;52.40
49178;BME280;35016;55.674;37.468;2023-05-29T03:58:17;99441.19;;;12.90;52.03
49178;BME280;35016;55.674;37.468;2023-05-29T04:00:44;99440.09;;;12.96;51.76
49178;BME280;35016;55.674;37.468;2023-05-29T04:03:15;99433.00;;;13.00;51.57
49178;BME280;35016;55.674;37.468;2023-05-29T04:05:45;99438.16;;;13.12;51.57
49178;BME280;35016;55.674;37.468;2023-05-29T04:08:13;99441.16;;;13.20;51.32
49178;BME280;35016;55.674;37.468;2023-05-29T04:10:42;99445.47;;;13.31;51.20
49178;BME280;35016;55.674;37.468;2023-05-29T04:13:10;99444.06;;;13.39;50.80
49178;BME280;35016;55.674;37.468;2023-05-29T04:15:38;99452.75;;;13.46;50.75
49178;BME280;35016;55.674;37.468;2023-05-29T04:18:05;99442.06;;;13.55;50.28
49178;BME280;35016;55.674;37.468;2023-05-29T04:20:33;99443.72;;;13.61;49.80
49178;BME280;35016;55.674;37.468;2023-05-29T04:23:00;99445.56;;;13.71;49.73
49178;BME280;35016;55.674;37.468;2023-05-29T04:25:27;99444.13;;;13.78;49.58
49178;BME280;35016;55.674;37.468;2023-05-29T04:27:55;99440.81;;;13.86;49.56
49178;BME280;35016;55.674;37.468;2023-05-29T04:30:22;99442.97;;;13.94;49.26
49178;BME280;35016;55.674;37.468;2023-05-29T04:32:50;99445.38;;;14.01;49.03
49178;BME280;35016;55.674;37.468;2023-05-29T04:35:20;99457.28;;;14.10;48.64
49178;BME280;35016;55.674;37.468;2023-05-29T04:38:01;99452.88;;;14.19;48.59
49178;BME280;35016;55.674;37.468;2023-05-29T04:40:31;99456.63;;;14.29;48.27
49178;BME280;35016;55.674;37.468;2023-05-29T04:43:03;99454.94;;;14.33;48.39
49178;BME280;35016;55.674;37.468;2023-05-29T04:46:07;99454.59;;;14.44;48.03
49178;BME280;35016;55.674;37.468;2023-05-29T04:48:39;99460.00;;;14.54;47.77
49178;BME280;35016;55.674;37.468;2023-05-29T04:51:08;99454.19;;;14.61;47.82
49178;BME280;35016;55.674;37.468;2023-05-29T04:53:39;99461.50;;;14.66;47.66
49178;BME280;35016;55.674;37.468;2023-05-29T04:56:08;99460.06;;;14.73;47.68
49178;BME280;35016;55.674;37.468;2023-05-29T04:58:36;99459.47;;;14.81;47.07
49178;BME280;35016;55.674;37.468;2023-05-29T05:01:04;99465.09;;;14.90;46.66
49178;BME280;35016;55.674;37.468;2023-05-29T05:03:32;99459.59;;;14.95;46.42
49178;BME280;35016;55.674;37.468;2023-05-29T05:06:03;99460.59;;;15.04;45.97
49178;BME280;35016;55.674;37.468;2023-05-29T05:08:32;99467.34;;;15.12;45.86
49178;BME280;35016;55.674;37.468;2023-05-29T05:11:01;99465.06;;;15.19;45.48
49178;BME280;35016;55.674;37.468;2023-05-29T05:13:28;99457.34;;;15.26;44.83
49178;BME280;35016;55.674;37.468;2023-05-29T05:15:56;99466.00;;;15.33;44.99
49178;BME280;35016;55.674;37.468;2023-05-29T05:18:23;99454.22;;;15.38;44.72
49178;BME280;35016;55.674;37.468;2023-05-29T05:20:58;99466.63;;;15.49;44.54
49178;BME280;35016;55.674;37.468;2023-05-29T05:23:26;99459.69;;;15.57;44.22
49178;BME280;35016;55.674;37.468;2023-05-29T05:25:53;99466.78;;;15.63;43.95
49178;BME280;35016;55.674;37.468;2023-05-29T05:28:22;99462.03;;;15.68;43.66
49178;BME280;35016;55.674;37.468;2023-05-29T05:30:49;99459.25;;;15.73;43.59
49178;BME280;35016;55.674;37.468;2023-05-29T05:33:18;99465.44;;;15.79;43.31
49178;BME280;35016;55.674;37.468;2023-05-29T05:35:46;99468.09;;;15.84;43.01
49178;BME280;35016;55.674;37.468;2023-05-29T05:38:13;99473.50;;;15.89;43.02
49178;BME280;35016;55.674;37.468;2023-05-29T05:40:41;99475.88;;;15.96;42.81
49178;BME280;35016;55.674;37.468;2023-05-29T05:43:13;99474.69;;;16.02;42.41
49178;BME280;35016;55.674;37.468;2023-05-29T05:46:13;99468.41;;;16.01;42.43
49178;BME280;35016;55.674;37.468;2023-05-29T05:48:41;99475.72;;;16.06;42.19
49178;BME280;35016;55.674;37.468;2023-05-29T05:51:09;99479.28;;;16.06;41.94
49178;BME280;35016;55.674;37.468;2023-05-29T05:53:37;99457.91;;;16.08;41.92
49178;BME280;35016;55.674;37.468;2023-05-29T05:56:05;99481.28;;;16.20;41.42
49178;BME280;35016;55.674;37.468;2023-05-29T05:58:32;99470.03;;;16.21;41.21
49178;BME280;35016;55.674;37.468;2023-05-29T06:01:00;99465.09;;;16.23;40.66
49178;BME280;35016;55.674;37.468;2023-05-29T06:03:28;99463.97;;;16.24;40.59
49178;BME280;35016;55.674;37.468;2023-05-29T06:06:05;99477.69;;;16.38;40.12
49178;BME280;35016;55.674;37.468;2023-05-29T06:08:35;99488.56;;;16.43;39.92
49178;BME280;35016;55.674;37.468;2023-05-29T06:11:02;99484.41;;;16.46;39.87
49178;BME280;35016;55.674;37.468;2023-05-29T06:13:32;99482.44;;;16.51;39.35
49178;BME280;35016;55.674;37.468;2023-05-29T06:16:05;99475.25;;;16.55;39.05
49178;BME280;35016;55.674;37.468;2023-05-29T06:18:32;99482.56;;;16.60;39.02
49178;BME280;35016;55.674;37.468;2023-05-29T06:21:00;99475.38;;;16.64;38.34
49178;BME280;35016;55.674;37.468;2023-05-29T06:23:29;99481.91;;;16.68;38.39
49178;BME280;35016;55.674;37.468;2023-05-29T06:25:56;99483.72;;;16.72;37.90
49178;BME280;35016;55.674;37.468;2023-05-29T06:28:24;99489.16;;;16.78;37.63
49178;BME280;35016;55.674;37.468;2023-05-29T06:30:51;99490.16;;;16.82;37.38
49178;BME280;35016;55.674;37.468;2023-05-29T06:33:19;99480.03;;;16.82;36.82
49178;BME280;35016;55.674;37.468;2023-05-29T06:35:48;99493.00;;;16.90;37.40
49178;BME280;35016;55.674;37.468;2023-05-29T06:38:16;99485.00;;;16.94;37.11
49178;BME280;35016;55.674;37.468;2023-05-29T06:40:44;99495.56;;;17.00;36.83
49178;BME280;35016;55.674;37.468;2023-05-29T06:43:21;99504.28;;;17.02;36.41
49178;BME280;35016;55.674;37.468;2023-05-29T06:45:48;99502.97;;;17.00;36.12
49178;BME280;35016;55.674;37.468;2023-05-29T06:48:17;99502.06;;;17.04;35.59
49178;BME280;35016;55.674;37.468;2023-05-29T06:50:47;99495.69;;;17.09;35.57
49178;BME280;35016;55.674;37.468;2023-05-29T06:53:35;99496.72;;;17.13;35.39
49178;BME280;35016;55.674;37.468;2023-05-29T06:56:04;99501.78;;;17.20;35.41
49178;BME280;35016;55.674;37.468;2023-05-29T06:58:34;99491.34;;;17.22;35.55
49178;BME280;35016;55.674;37.468;2023-05-29T07:01:01;99499.16;;;17.28;35.13
49178;BME280;35016;55.674;37.468;2023-05-29T07:03:34;99493.50;;;17.39;35.44
49178;BME280;35016;55.674;37.468;2023-05-29T07:06:04;99491.75;;;17.43;35.60
49178;BME280;35016;55.674;37.468;2023-05-29T07:08:32;99497.94;;;17.48;35.46
49178;BME280;35016;55.674;37.468;2023-05-29T07:11:01;99508.09;;;17.48;35.28
49178;BME280;35016;55.674;37.468;2023-05-29T07:13:29;99499.88;;;17.48;35.11
49178;BME280;35016;55.674;37.468;2023-05-29T07:15:56;99503.44;;;17.48;34.98
49178;BME280;35016;55.674;37.468;2023-05-29T07:18:31;99506.06;;;17.53;35.03
49178;BME280;35016;55.674;37.468;2023-05-29T07:21:00;99507.50;;;17.51;34.68
49178;BME280;35016;55.674;37.468;2023-05-29T07:23:30;99498.75;;;17.49;34.56
49178;BME280;35016;55.674;37.468;2023-05-29T07:25:58;99486.88;;;17.40;34.60
49178;BME280;35016;55.674;37.468;2023-05-29T07:28:29;99503.22;;;17.45;34.43
49178;BME280;35016;55.674;37.468;2023-05-29T07:30:57;99513.28;;;17.49;34.40
49178;BME280;35016;55.674;37.468;2023-05-29T07:33:24;99506.47;;;17.47;34.44
49178;BME280;35016;55.674;37.468;2023-05-29T07:35:54;99507.59;;;17.46;34.09
49178;BME280;35016;55.674;37.468;2023-05-29T07:38:22;99487.19;;;17.38;33.91
49178;BME280;35016;55.674;37.468;2023-05-29T07:40:52;99492.97;;;17.50;33.93
49178;BME280;35016;55.674;37.468;2023-05-29T07:43:49;99482.72;;;17.56;33.95
49178;BME280;35016;55.674;37.468;2023-05-29T07:46:19;99492.28;;;17.72;34.04
49178;BME280;35016;55.674;37.468;2023-05-29T07:48:50;99489.81;;;17.84;33.86
49178;BME280;35016;55.674;37.468;2023-05-29T07:51:18;99488.88;;;17.89;33.63
49178;BME280;35016;55.674;37.468;2023-05-29T07:53:47;99492.53;;;17.98;33.32
49178;BME280;35016;55.674;37.468;2023-05-29T07:56:16;99498.03;;;17.98;33.32
49178;BME280;35016;55.674;37.468;2023-05-29T07:58:44;99491.53;;;17.94;33.58
49178;BME280;35016;55.674;37.468;2023-05-29T08:01:12;99494.06;;;18.04;33.31
49178;BME280;35016;55.674;37.468;2023-05-29T08:03:43;99494.25;;;18.08;32.78
49178;BME280;35016;55.674;37.468;2023-05-29T08:06:29;99499.00;;;18.16;33.11
49178;BME280;35016;55.674;37.468;2023-05-29T08:08:59;99486.69;;;18.13;33.10
49178;BME280;35016;55.674;37.468;2023-05-29T08:11:30;99491.34;;;18.26;33.15
49178;BME280;35016;55.674;37.468;2023-05-29T08:14:03;99495.59;;;18.33;32.56
49178;BME280;35016;55.674;37.468;2023-05-29T08:16:31;99481.56;;;18.34;32.68
49178;BME280;35016;55.674;37.468;2023-05-29T08:18:58;99483.50;;;18.34;32.69
49178;BME280;35016;55.674;37.468;2023-05-29T08:21:25;99480.50;;;18.44;32.48
49178;BME280;35016;55.674;37.468;2023-05-29T08:23:53;99493.69;;;18.55;32.40
49178;BME280;35016;55.674;37.468;2023-05-29T08:26:20;99477.59;;;18.63;32.40
49178;BME280;35016;55.674;37.468;2023-05-29T08:28:47;99486.88;;;18.75;32.31
49178;BME280;35016;55.674;37.468;2023-05-29T08:31:17;99481.78;;;18.82;32.21
49178;BME280;35016;55.674;37.468;2023-05-29T08:33:44;99482.25;;;18.84;32.33
49178;BME280;35016;55.674;37.468;2023-05-29T08:36:12;99484.69;;;18.86;32.42
49178;BME280;35016;55.674;37.468;2023-05-29T08:38:39;99472.41;;;18.83;32.30
49178;BME280;35016;55.674;37.468;2023-05-29T08:41:07;99476.63;;;18.90;32.24
49178;BME280;35016;55.674;37.468;2023-05-29T08:43:41;99474.88;;;18.94;32.16
49178;BME280;35016;55.674;37.468;2023-05-29T08:46:09;99483.94;;;18.94;32.30
49178;BME280;35016;55.674;37.468;2023-05-29T08:48:40;99482.31;;;18.93;31.59
49178;BME280;35016;55.674;37.468;2023-05-29T08:51:07;99478.56;;;18.89;32.00
49178;BME280;35016;55.674;37.468;2023-05-29T08:53:36;99472.56;;;18.87;32.02
49178;BME280;35016;55.674;37.468;2023-05-29T08:56:04;99473.56;;;18.91;32.08
49178;BME280;35016;55.674;37.468;2023-05-29T08:58:32;99478.94;;;18.96;31.84
49178;BME280;35016;55.674;37.468;2023-05-29T09:01:01;99468.09;;;19.00;31.54
49178;BME280;35016;55.674;37.468;2023-05-29T09:03:29;99465.84;;;19.02;31.41
49178;BME280;35016;55.674;37.468;2023-05-29T09:05:59;99466.66;;;19.02;30.77
49178;BME280;35016;55.674;37.468;2023-05-29T09:08:30;99469.09;;;19.04;31.17
49178;BME280;35016;55.674;37.468;2023-05-29T09:10:57;99469.09;;;19.04;30.91
49178;BME280;35016;55.674;37.468;2023-05-29T09:13:24;99458.28;;;19.07;30.93
49178;BME280;35016;55.674;37.468;2023-05-29T09:15:57;99470.13;;;19.16;30.11
49178;BME280;35016;55.674;37.468;2023-05-29T09:18:31;99458.19;;;19.21;30.37
49178;BME280;35016;55.674;37.468;2023-05-29T09:20:59;99464.00;;;19.19;30.77
49178;BME280;35016;55.674;37.468;2023-05-29T09:23:29;99461.09;;;19.25;30.75
49178;BME280;35016;55.674;37.468;2023-05-29T09:25:57;99451.41;;;19.27;30.60
49178;BME280;35016;55.674;37.468;2023-05-29T09:28:25;99444.63;;;19.33;30.44
49178;BME280;35016;55.674;37.468;2023-05-29T09:30:53;99446.63;;;19.41;30.54
49178;BME280;35016;55.674;37.468;2023-05-29T09:33:21;99440.66;;;19.48;30.51
49178;BME280;35016;55.674;37.468;2023-05-29T09:35:49;99445.19;;;19.53;30.44
49178;BME280;35016;55.674;37.468;2023-05-29T09:38:18;99443.44;;;19.57;30.35
49178;BME280;35016;55.674;37.468;2023-05-29T09:41:06;99434.72;;;19.63;30.19
49178;BME280;35016;55.674;37.468;2023-05-29T09:43:34;99438.13;;;19.69;30.08
49178;BME280;35016;55.674;37.468;2023-05-29T09:46:01;99441.06;;;19.72;29.95
49178;BME280;35016;55.674;37.468;2023-05-29T09:48:30;99432.81;;;19.72;29.78
49178;BME280;35016;55.674;37.468;2023-05-29T09:50:58;99427.94;;;19.69;29.69
49178;BME280;35016;55.674;37.468;2023-05-29T09:53:28;99425.69;;;19.71;29.43
49178;BME280;35016;55.674;37.468;2023-05-29T09:55:56;99422.44;;;19.69;29.17
49178;BME280;35016;55.674;37.468;2023-05-29T09:58:28;99433.13;;;19.71;29.07
49178;BME280;35016;55.674;37.468;2023-05-29T10:00:55;99430.84;;;19.73;29.13
49178;BME280;35016;55.674;37.468;2023-05-29T10:03:25;99437.81;;;19.79;28.84
49178;BME280;35016;55.674;37.468;2023-05-29T10:05:55;99432.00;;;19.80;28.68
49178;BME280;35016;55.674;37.468;2023-05-29T10:08:25;99432.16;;;19.84;28.63
49178;BME280;35016;55.674;37.468;2023-05-29T10:11:01;99420.19;;;19.97;28.17
49178;BME280;35016;55.674;37.468;2023-05-29T10:13:41;99432.81;;;20.16;28.30
49178;BME280;35016;55.674;37.468;2023-05-29T10:16:10;99428.44;;;20.32;28.99
49178;BME280;35016;55.674;37.468;2023-05-29T10:18:43;99427.16;;;20.29;28.20
49178;BME280;35016;55.674;37.468;2023-05-29T10:21:17;99429.56;;;20.22;28.59
49178;BME280;35016;55.674;37.468;2023-05-29T10:23:47;99422.78;;;20.20;28.18
49178;BME280;35016;55.674;37.468;2023-05-29T10:26:21;99425.53;;;20.20;28.08
49178;BME280;35016;55.674;37.468;2023-05-29T10:29:17;99410.63;;;20.29;28.14
49178;BME280;35016;55.674;37.468;2023-05-29T10:37:47;99413.88;;;20.40;27.77
49178;BME280;35016;55.674;37.468;2023-05-29T10:40:22;99414.69;;;20.32;28.29
49178;BME280;35016;55.674;37.468;2023-05-29T10:42:51;99411.28;;;20.26;28.49
49178;BME280;35016;55.674;37.468;2023-05-29T10:50:37;99411.75;;;20.28;28.55
49178;BME280;35016;55.674;37.468;2023-05-29T10:53:09;99414.53;;;20.28;28.65
49178;BME280;35016;55.674;37.468;2023-05-29T10:55:40;99399.28;;;20.22;28.78
49178;BME280;35016;55.674;37.468;2023-05-29T10:58:14;99381.63;;;20.23;29.06
49178;BME280;35016;55.674;37.468;2023-05-29T11:00:45;99389.06;;;20.23;28.93
49178;BME280;35016;55.674;37.468;2023-05-29T11:03:30;99388.94;;;20.28;28.54
49178;BME280;35016;55.674;37.468;2023-05-29T11:06:03;99394.59;;;20.31;28.73
49178;BME280;35016;55.674;37.468;2023-05-29T11:08:47;99395.69;;;20.39;28.87
49178;BME280;35016;55.674;37.468;2023-05-29T11:11:31;99385.34;;;20.45;28.52
49178;BME280;35016;55.674;37.468;2023-05-29T11:14:06;99386.97;;;20.46;28.94
49178;BME280;35016;55.674;37.468;2023-05-29T11:19:09;99383.22;;;20.59;28.78
49178;BME280;35016;55.674;37.468;2023-05-29T11:26:58;99376.16;;;20.79;28.28
49178;BME280;35016;55.674;37.468;2023-05-29T11:29:28;99379.38;;;20.89;28.14
49178;BME280;35016;55.674;37.468;2023-05-29T11:32:01;99384.66;;;21.03;27.77
49178;BME280;35016;55.674;37.468;2023-05-29T11:34:32;99373.75;;;21.15;27.91
49178;BME280;35016;55.674;37.468;2023-05-29T11:37:01;99374.63;;;21.37;27.70
49178;BME280;35016;55.674;37.468;2023-05-29T11:39:29;99376.19;;;21.67;27.14
49178;BME280;35016;55.674;37.468;2023-05-29T11:42:00;99369.78;;;21.96;26.85
49178;BME280;35016;55.674;37.468;2023-05-29T11:44:27;99368.84;;;22.34;26.87
49178;BME280;35016;55.674;37.468;2023-05-29T11:47:06;99367.81;;;22.83;26.61
49178;BME280;35016;55.674;37.468;2023-05-29T11:49:36;99365.16;;;23.36;26.64
49178;BME280;35016;55.674;37.468;2023-05-29T11:52:12;99349.66;;;24.12;25.31
49178;BME280;35016;55.674;37.468;2023-05-29T11:54:44;99357.97;;;24.99;26.05
49178;BME280;35016;55.674;37.468;2023-05-29T11:57:20;99361.41;;;25.78;24.64
49178;BME280;35016;55.674;37.468;2023-05-29T11:59:51;99353.63;;;26.45;24.50
49178;BME280;35016;55.674;37.468;2023-05-29T12:02:26;99345.44;;;26.98;24.18
49178;BME280;35016;55.674;37.468;2023-05-29T12:05:02;99338.94;;;27.40;22.93
49178;BME280;35016;55.674;37.468;2023-05-29T12:07:30;99332.34;;;27.78;23.48
49178;BME280;35016;55.674;37.468;2023-05-29T12:12:37;99342.56;;;28.75;22.22
49178;BME280;35016;55.674;37.468;2023-05-29T12:15:07;99341.88;;;29.36;21.67
49178;BME280;35016;55.674;37.468;2023-05-29T12:17:35;99339.44;;;29.97;21.15
49178;BME280;35016;55.674;37.468;2023-05-29T12:20:03;99352.81;;;30.53;20.99
49178;BME280;35016;55.674;37.468;2023-05-29T12:22:37;99345.69;;;30.80;20.31
49178;BME280;35016;55.674;37.468;2023-05-29T12:25:10;99338.47;;;30.87;19.17
49178;BME280;35016;55.674;37.468;2023-05-29T12:27:39;99347.28;;;30.81;19.84
49178;BME280;35016;55.674;37.468;2023-05-29T12:30:11;99332.47;;;30.92;19.46
49178;BME280;35016;55.674;37.468;2023-05-29T12:32:57;99330.88;;;31.08;19.68
49178;BME280;35016;55.674;37.468;2023-05-29T12:35:28;99331.69;;;31.34;19.51
49178;BME280;35016;55.674;37.468;2023-05-29T12:38:01;99325.94;;;31.80;18.14
49178;BME280;35016;55.674;37.468;2023-05-29T12:40:33;99326.59;;;32.20;18.50
49178;BME280;35016;55.674;37.468;2023-05-29T12:43:07;99322.69;;;32.65;17.51
49178;BME280;35016;55.674;37.468;2023-05-29T12:45:38;99320.78;;;33.07;17.96
49178;BME280;35016;55.674;37.468;2023-05-29T12:48:07;99312.41;;;33.45;17.13
49178;BME280;35016;55.674;37.468;2023-05-29T12:50:40;99318.78;;;33.86;16.83
49178;BME280;35016;55.674;37.468;2023-05-29T12:53:08;99306.44;;;34.07;17.02
49178;BME280;35016;55.674;37.468;2023-05-29T12:55:42;99309.69;;;34.33;16.36
49178;BME280;35016;55.674;37.468;2023-05-29T12:58:13;99317.75;;;34.61;16.45
49178;BME280;35016;55.674;37.468;2023-05-29T13:00:44;99320.22;;;34.83;16.40
49178;BME280;35016;55.674;37.468;2023-05-29T13:03:12;99314.56;;;35.09;16.51
49178;BME280;35016;55.674;37.468;2023-05-29T13:05:40;99311.03;;;35.49;16.21
49178;BME280;35016;55.674;37.468;2023-05-29T13:08:07;99306.59;;;35.91;15.87
49178;BME280;35016;55.674;37.468;2023-05-29T13:10:35;99307.69;;;36.13;15.11
49178;BME280;35016;55.674;37.468;2023-05-29T13:13:03;99317.19;;;36.23;15.25
49178;BME280;35016;55.674;37.468;2023-05-29T13:15:31;99303.16;;;36.19;14.97
49178;BME280;35016;55.674;37.468;2023-05-29T13:18:00;99306.13;;;35.73;14.84
49178;BME280;35016;55.674;37.468;2023-05-29T13:20:28;99323.09;;;35.06;15.42
49178;BME280;35016;55.674;37.468;2023-05-29T13:22:57;99311.38;;;34.84;15.31
49178;BME280;35016;55.674;37.468;2023-05-29T13:25:24;99316.28;;;35.03;15.35
49178;BME280;35016;55.674;37.468;2023-05-29T13:27:56;99311.47;;;35.47;15.38
49178;BME280;35016;55.674;37.468;2023-05-29T13:30:25;99298.97;;;35.68;14.99
49178;BME280;35016;55.674;37.468;2023-05-29T13:32:53;99302.16;;;35.70;15.31
49178;BME280;35016;55.674;37.468;2023-05-29T13:35:21;99301.38;;;35.89;14.87